Airfield :
LOGIN :

Register | Disclaimer

   EN    FR    IT 

 










Legend :    VFR   Marginal VFR   IFR   Intensive IFR   Very Intensive IFR
Visi :
Ceiling :
>= 8 km
>= 3000ft
5 to 8 km
1000 to 3000 ft
1500m to 5 km
500 to 1000 ft
800 to 1500m
200 to 500 ft
< 800m
< 200 ft
Symbols :   Thunderstorms  Fog  Heavy snow  Heavy precipitations  Wind > 20 kt
SIGMETs :     Misc.  Thunderstorms  Icing  Turbulence  Mountain Waves  Volcanic Ashes






- Airport Elevation : 29 ft
- IATA code : SVG


ENZV - Sola

CURRENT METAR :
  • 071450Z 23012KT 9999 VCSH SCT016CB BKN022 BKN096 13/10 Q1002

EXPIRED METARs :
  • 071420Z 22013KT 9999 VCSH FEW015CB SCT026 BKN051 13/10 Q1002
  • 071350Z 23015KT 9999 VCSH SCT015CB BKN030 13/10 Q1002
  • 071320Z 23014G24KT 9999 VCSH SCT016 BKN050 13/10 Q1002
  • 071250Z 22017G27KT 9999 VCSH SCT015CB BKN045 13/11 Q1002
  • 071220Z 22017KT 9999 -RA SCT015CB BKN045 14/11 Q1002

TAF TAF ENZV
Valid from the 07 at 12:00 until the 08 at 12:00 UTC


0712/0812 22018KT 9999 -SHRA FEW010 BKN015
TEMPO 0712/0715 24020G30KT 4000 SHRA BKN008 SCT015CB
PROB30
TEMPO 0712/0715 TS
BECMG 0715/0718 28008KT
TEMPO 0721/0812 SHRA BKN020CB
PROB40
TEMPO 0721/0812 30015G25KT
PROB30 0721/0804 TS



MET'MAP, your aeronautical weather chart ! - Copyright ORBIFLY December 2007 - Disclaimer

ORBIFLY MET'MAP TEAM :

Programming & Development : Alexandra Zaïnal
Original concept : Baudouin d'Aumeries
Technical & hardware support : Manuel Goepfert
Assistance : Marc-Olivier Méhu




SOURCES & CREDITS :

   NOAA